createdAt,value
2022-11-19T00:02:06.752Z,99674.41
2022-11-19T00:04:35.257Z,99676.34
2022-11-19T00:07:04.119Z,99677.71
2022-11-19T00:09:32.517Z,99678.02
2022-11-19T00:12:19.380Z,99682.45
2022-11-19T00:14:47.779Z,99686.77
2022-11-19T00:17:16.137Z,99695.30
2022-11-19T00:19:44.450Z,99697.54
2022-11-19T00:22:12.863Z,99700.07
2022-11-19T00:24:41.293Z,99703.13
2022-11-19T00:27:09.720Z,99705.81
2022-11-19T00:29:38.100Z,99711.20
2022-11-19T00:32:06.487Z,99712.66
2022-11-19T00:34:34.838Z,99715.31
2022-11-19T00:37:03.245Z,99711.46
2022-11-19T00:39:31.607Z,99711.75
2022-11-19T00:42:00.478Z,99708.77
2022-11-19T00:44:34.016Z,99708.92
2022-11-19T00:47:05.676Z,99701.64
2022-11-19T00:49:34.030Z,99711.02
2022-11-19T00:52:02.441Z,99715.77
2022-11-19T00:54:31.185Z,99716.46
2022-11-19T00:56:59.638Z,99714.20
2022-11-19T00:59:28.118Z,99712.47
2022-11-19T01:01:56.918Z,99713.13
2022-11-19T01:04:25.458Z,99716.17
2022-11-19T01:06:53.940Z,99721.62
2022-11-19T01:09:22.831Z,99719.89
2022-11-19T01:11:51.202Z,99715.90
2022-11-19T01:14:19.656Z,99715.89
2022-11-19T01:16:48.103Z,99719.17
2022-11-19T01:19:17.170Z,99722.21
2022-11-19T01:21:46.320Z,99725.96
2022-11-19T01:24:14.711Z,99723.84
2022-11-19T01:26:45.752Z,99711.77
2022-11-19T01:29:14.538Z,99709.66
2022-11-19T01:31:43.042Z,99708.80
2022-11-19T01:34:11.395Z,99714.48
2022-11-19T01:36:39.871Z,99716.50
2022-11-19T01:39:08.286Z,99715.46
2022-11-19T01:41:36.679Z,99717.37
2022-11-19T01:44:08.389Z,99717.41
2022-11-19T01:46:38.752Z,99721.83
2022-11-19T01:49:17.369Z,99721.45
2022-11-19T01:51:57.981Z,99724.31
2022-11-19T01:54:34.280Z,99720.02
2022-11-19T01:57:07.672Z,99721.55
2022-11-19T01:59:37.759Z,99725.98
2022-11-19T02:02:06.109Z,99723.63
2022-11-19T02:04:36.275Z,99726.90
2022-11-19T02:07:04.829Z,99728.80
2022-11-19T02:09:33.972Z,99730.20
2022-11-19T02:12:05.214Z,99732.83
2022-11-19T02:15:05.734Z,99737.09
2022-11-19T02:18:02.625Z,99742.80
2022-11-19T02:21:18.892Z,99748.88
2022-11-19T02:24:12.211Z,99754.62
2022-11-19T02:27:00.637Z,99754.80
2022-11-19T02:29:29.476Z,99756.84
2022-11-19T02:32:04.751Z,99757.58
2022-11-19T02:34:53.491Z,99762.08
2022-11-19T02:37:33.240Z,99767.61
2022-11-19T02:40:20.338Z,99763.05
2022-11-19T02:43:10.014Z,99765.92
2022-11-19T02:45:46.992Z,99767.94
2022-11-19T02:48:31.474Z,99764.73
2022-11-19T02:51:04.157Z,99767.71
2022-11-19T02:53:33.531Z,99767.01
2022-11-19T02:56:49.458Z,99777.21
2022-11-19T02:59:44.284Z,99779.45
2022-11-19T03:02:34.740Z,99784.44
2022-11-19T03:05:09.030Z,99783.06
2022-11-19T03:07:37.872Z,99786.86
2022-11-19T03:10:10.495Z,99785.27
2022-11-19T03:13:24.298Z,99782.67
2022-11-19T03:16:15.348Z,99782.63
2022-11-19T03:18:56.847Z,99782.10
2022-11-19T03:21:44.302Z,99787.20
2022-11-19T03:24:31.368Z,99788.74
2022-11-19T03:27:24.382Z,99793.52
2022-11-19T03:29:57.919Z,99797.34
2022-11-19T03:32:33.080Z,99796.52
2022-11-19T03:35:08.869Z,99797.96
2022-11-19T03:37:39.903Z,99800.06
2022-11-19T03:40:10.479Z,99804.41
2022-11-19T03:42:40.121Z,99797.98
2022-11-19T03:45:17.199Z,99798.27
2022-11-19T03:47:50.183Z,99800.81
2022-11-19T03:50:28.868Z,99803.58
2022-11-19T03:53:03.936Z,99805.61
2022-11-19T03:55:44.495Z,99808.37
2022-11-19T03:58:13.181Z,99810.60
2022-11-19T04:00:41.682Z,99812.98
2022-11-19T04:03:10.057Z,99819.89
2022-11-19T04:05:38.350Z,99823.39
2022-11-19T04:08:06.791Z,99825.98
2022-11-19T04:10:35.136Z,99833.10
2022-11-19T04:13:03.835Z,99831.98
2022-11-19T04:15:32.206Z,99836.11
2022-11-19T04:18:00.623Z,99836.14
2022-11-19T04:20:29.196Z,99837.19
2022-11-19T04:22:57.566Z,99834.47
2022-11-19T04:25:25.964Z,99836.42
2022-11-19T04:27:54.307Z,99836.48
2022-11-19T04:30:22.704Z,99833.64
2022-11-19T04:32:51.095Z,99837.06
2022-11-19T04:35:21.927Z,99840.36
2022-11-19T04:37:50.280Z,99841.91
2022-11-19T04:40:18.623Z,99842.02
2022-11-19T04:42:46.938Z,99846.11
2022-11-19T04:45:15.478Z,99851.07
2022-11-19T04:47:43.793Z,99852.82
2022-11-19T04:50:12.688Z,99851.99
2022-11-19T04:52:41.645Z,99854.91
2022-11-19T04:55:10.919Z,99856.34
2022-11-19T04:57:39.378Z,99855.03
2022-11-19T05:00:08.848Z,99856.76
2022-11-19T05:02:37.173Z,99861.38
2022-11-19T05:05:06.264Z,99858.81
2022-11-19T05:07:34.684Z,99863.88
2022-11-19T05:10:03.705Z,99866.25
2022-11-19T05:12:32.088Z,99861.79
2022-11-19T05:15:00.421Z,99864.50
2022-11-19T05:17:28.863Z,99865.17
2022-11-19T05:19:59.600Z,99861.57
2022-11-19T05:22:28.006Z,99860.34
2022-11-19T05:24:56.320Z,99861.02
2022-11-19T05:27:24.712Z,99860.30
2022-11-19T05:29:53.041Z,99862.48
2022-11-19T05:32:21.392Z,99860.75
2022-11-19T05:34:49.766Z,99862.55
2022-11-19T05:37:18.141Z,99857.36
2022-11-19T05:39:46.409Z,99856.10
2022-11-19T05:42:14.707Z,99863.88
2022-11-19T05:44:42.989Z,99870.94
2022-11-19T05:47:11.587Z,99878.20
2022-11-19T05:49:39.965Z,99881.70
2022-11-19T05:52:08.513Z,99882.48
2022-11-19T05:54:37.032Z,99883.60
2022-11-19T05:57:05.749Z,99882.63
2022-11-19T05:59:34.197Z,99885.05
2022-11-19T06:02:02.472Z,99888.84
2022-11-19T06:04:30.809Z,99904.23
2022-11-19T06:06:59.292Z,99907.44
2022-11-19T06:09:27.709Z,99911.27
2022-11-19T06:11:56.014Z,99915.09
2022-11-19T06:14:26.101Z,99923.88
2022-11-19T06:16:59.807Z,99930.09
2022-11-19T06:19:28.122Z,99934.60
2022-11-19T06:21:56.511Z,99937.23
2022-11-19T06:24:25.010Z,99931.85
2022-11-19T06:26:53.338Z,99929.09
2022-11-19T06:29:21.985Z,99933.20
2022-11-19T06:31:50.447Z,99938.84
2022-11-19T06:34:18.846Z,99939.21
2022-11-19T06:36:50.544Z,99936.69
2022-11-19T06:39:19.588Z,99935.55
2022-11-19T06:41:48.934Z,99937.79
2022-11-19T06:44:17.476Z,99942.74
2022-11-19T06:46:45.794Z,99945.02
2022-11-19T06:49:19.620Z,99946.23
2022-11-19T06:51:48.322Z,99947.27
2022-11-19T06:54:16.632Z,99949.14
2022-11-19T06:56:44.942Z,99956.81
2022-11-19T06:59:13.355Z,99958.33
2022-11-19T07:01:41.653Z,99964.30
2022-11-19T07:04:11.444Z,99963.64
2022-11-19T07:06:39.721Z,99966.92
2022-11-19T07:09:08.033Z,99965.77
2022-11-19T07:11:36.422Z,99971.42
2022-11-19T07:14:04.815Z,99972.44
2022-11-19T07:16:36.831Z,99973.92
2022-11-19T07:21:50.310Z,99973.74
2022-11-19T07:24:18.765Z,99976.38
2022-11-19T07:26:47.172Z,99976.09
2022-11-19T07:29:15.819Z,99977.59
2022-11-19T07:31:45.841Z,99979.77
2022-11-19T07:34:14.313Z,99978.02
2022-11-19T07:36:44.146Z,99979.33
2022-11-19T07:39:12.921Z,99976.52
2022-11-19T07:41:59.706Z,99977.63
2022-11-19T07:44:28.140Z,99977.88
2022-11-19T07:46:56.733Z,99977.77
2022-11-19T07:49:26.165Z,99979.04
2022-11-19T07:51:54.894Z,99976.35
2022-11-19T07:54:23.284Z,99975.52
2022-11-19T07:56:51.714Z,99976.78
2022-11-19T07:59:20.162Z,99980.44
2022-11-19T08:01:48.782Z,99981.85
2022-11-19T08:04:17.263Z,99984.05
2022-11-19T08:10:54.576Z,99978.87
2022-11-19T08:13:23.111Z,99975.39
2022-11-19T08:15:51.366Z,99974.01
2022-11-19T08:18:19.837Z,99972.98
2022-11-19T08:20:48.755Z,99976.14
2022-11-19T08:23:17.162Z,99975.08
2022-11-19T08:25:45.738Z,99975.84
2022-11-19T08:28:14.142Z,99979.48
2022-11-19T08:30:42.532Z,99979.42
2022-11-19T08:33:11.182Z,99981.29
2022-11-19T08:35:39.601Z,99978.16
2022-11-19T08:38:07.856Z,99979.38
2022-11-19T08:40:36.747Z,99980.70
2022-11-19T08:43:05.058Z,99982.86
2022-11-19T08:45:37.517Z,99979.02
2022-11-19T08:48:10.455Z,99983.05
2022-11-19T08:50:42.042Z,99978.14
2022-11-19T08:53:10.370Z,99980.64
2022-11-19T08:55:38.703Z,99980.89
2022-11-19T08:58:08.258Z,99981.73
2022-11-19T09:00:37.692Z,99988.84
2022-11-19T09:03:06.074Z,99982.77
2022-11-19T09:05:34.415Z,99986.79
2022-11-19T09:08:02.755Z,99988.92
2022-11-19T09:10:31.080Z,99990.10
2022-11-19T09:13:02.366Z,99992.23
2022-11-19T09:15:30.884Z,99993.45
2022-11-19T09:17:59.364Z,99995.70
2022-11-19T09:20:27.690Z,99999.98
2022-11-19T09:22:56.017Z,100001.41
2022-11-19T09:25:24.453Z,99998.55
2022-11-19T09:27:52.771Z,99998.55
2022-11-19T09:30:21.118Z,99995.23
2022-11-19T09:32:49.447Z,99994.81
2022-11-19T09:47:15.801Z,99999.64
2022-11-19T09:50:13.991Z,100005.45
2022-11-19T09:52:58.700Z,100005.09
2022-11-19T09:55:32.949Z,100002.34
2022-11-19T09:58:06.032Z,99999.03
2022-11-19T10:00:34.400Z,99994.14
2022-11-19T10:03:13.423Z,99991.55
2022-11-19T10:06:15.776Z,99986.55
2022-11-19T10:09:42.161Z,99990.75
2022-11-19T10:12:53.021Z,99993.98
2022-11-19T10:15:45.401Z,99998.11
2022-11-19T10:18:25.696Z,99996.43
2022-11-19T10:21:11.362Z,99991.61
2022-11-19T10:23:54.700Z,99987.55
2022-11-19T10:26:40.988Z,99992.19
2022-11-19T10:29:19.621Z,99991.73
2022-11-19T10:31:50.967Z,99989.29
2022-11-19T10:34:33.684Z,99992.33
2022-11-19T10:37:11.440Z,99988.03
2022-11-19T10:39:48.945Z,99986.69
2022-11-19T10:42:44.154Z,99988.24
2022-11-19T10:45:25.034Z,99990.64
2022-11-19T10:48:25.073Z,99985.08
2022-11-19T10:50:55.899Z,99984.50
2022-11-19T10:53:38.169Z,99984.81
2022-11-19T10:56:14.770Z,99978.68
2022-11-19T10:58:57.514Z,99976.69
2022-11-19T11:01:32.717Z,99977.64
2022-11-19T11:04:21.729Z,99976.89
2022-11-19T11:06:57.739Z,99967.81
2022-11-19T11:09:40.422Z,99962.38
2022-11-19T11:12:44.005Z,99964.31
2022-11-19T11:15:26.795Z,99966.53
2022-11-19T11:18:11.330Z,99970.73
2022-11-19T11:20:49.104Z,99968.58
2022-11-19T11:23:21.923Z,99966.13
2022-11-19T11:26:05.660Z,99962.21
2022-11-19T11:28:35.265Z,99957.00
2022-11-19T11:31:09.511Z,99957.70
2022-11-19T11:33:54.747Z,99952.81
2022-11-19T11:36:28.008Z,99952.97
2022-11-19T11:38:59.355Z,99957.54
2022-11-19T11:42:04.738Z,99957.57
2022-11-19T11:44:37.826Z,99953.14
2022-11-19T11:47:19.386Z,99953.20
2022-11-19T11:50:00.424Z,99952.28
2022-11-19T11:52:42.527Z,99953.54
2022-11-19T11:55:32.605Z,99958.31
2022-11-19T11:58:24.928Z,99960.20
2022-11-19T12:01:18.264Z,99963.89
2022-11-19T12:03:59.033Z,99962.45
2022-11-19T12:06:41.506Z,99966.84
2022-11-19T12:09:20.780Z,99960.60
2022-11-19T12:12:14.085Z,99960.66
2022-11-19T12:15:14.513Z,99954.83
2022-11-19T12:17:57.908Z,99956.08
2022-11-19T12:20:59.303Z,99951.83
2022-11-19T12:24:13.950Z,99950.48
2022-11-19T12:27:29.131Z,99943.77
2022-11-19T12:30:39.804Z,99947.98
2022-11-19T12:33:36.015Z,99950.52
2022-11-19T12:36:30.862Z,99946.22
2022-11-19T12:39:41.596Z,99946.41
2022-11-19T12:42:58.656Z,99949.67
2022-11-19T12:45:56.468Z,99952.39
2022-11-19T12:48:53.343Z,99954.48
2022-11-19T12:52:00.128Z,99956.90
2022-11-19T12:54:37.862Z,99954.28
2022-11-19T12:57:40.681Z,99951.84
2022-11-19T13:00:16.405Z,99950.63
2022-11-19T13:03:08.494Z,99950.98
2022-11-19T13:05:50.826Z,99948.22
2022-11-19T13:08:41.709Z,99947.84
2022-11-19T13:11:45.152Z,99944.40
2022-11-19T13:14:45.200Z,99944.08
2022-11-19T13:17:30.123Z,99943.64
2022-11-19T13:20:04.717Z,99942.66
2022-11-19T13:22:38.028Z,99942.71
2022-11-19T13:25:24.702Z,99943.56
2022-11-19T13:27:57.006Z,99943.48
2022-11-19T13:30:27.781Z,99941.41
2022-11-19T13:33:26.817Z,99942.86
2022-11-19T13:36:24.017Z,99940.91
2022-11-19T13:39:01.863Z,99939.95
2022-11-19T13:42:02.910Z,99940.20
2022-11-19T13:44:41.598Z,99934.59
2022-11-19T13:47:24.769Z,99936.16
2022-11-19T13:50:02.140Z,99934.89
2022-11-19T13:52:46.619Z,99936.19
2022-11-19T13:55:40.568Z,99936.31
2022-11-19T13:58:21.784Z,99941.57
2022-11-19T14:01:43.736Z,99945.22
2022-11-19T14:05:04.123Z,99938.70
2022-11-19T14:08:06.069Z,99940.23
2022-11-19T14:11:11.781Z,99935.15
2022-11-19T14:14:44.996Z,99931.14
2022-11-19T14:18:30.354Z,99932.64
2022-11-19T14:21:43.370Z,99930.83
2022-11-19T14:24:42.309Z,99925.66
2022-11-19T14:27:20.917Z,99928.48
2022-11-19T14:29:49.149Z,99925.58
2022-11-19T14:32:28.003Z,99927.60
2022-11-19T14:35:02.259Z,99928.85
2022-11-19T14:37:36.700Z,99933.64
2022-11-19T14:40:14.404Z,99932.94
2022-11-19T14:43:19.796Z,99933.26
2022-11-19T14:46:06.491Z,99932.70
2022-11-19T14:48:48.943Z,99932.27
2022-11-19T14:51:29.483Z,99925.90
2022-11-19T14:54:16.202Z,99924.89
2022-11-19T14:56:59.029Z,99925.09
2022-11-19T14:59:31.553Z,99919.77
2022-11-19T15:02:17.773Z,99921.58
2022-11-19T15:05:06.515Z,99915.31
2022-11-19T15:07:45.277Z,99917.53
2022-11-19T15:10:13.586Z,99915.58
2022-11-19T15:12:45.379Z,99915.84
2022-11-19T15:15:19.741Z,99914.17
2022-11-19T15:18:39.128Z,99915.03
2022-11-19T15:21:07.588Z,99916.63
2022-11-19T15:23:51.222Z,99919.00
2022-11-19T15:27:04.927Z,99922.91
2022-11-19T15:30:03.988Z,99918.09
2022-11-19T15:32:57.459Z,99918.19
2022-11-19T15:35:38.621Z,99922.19
2022-11-19T15:38:18.522Z,99927.02
2022-11-19T15:40:54.514Z,99927.61
2022-11-19T15:43:46.971Z,99924.56
2022-11-19T15:46:28.847Z,99920.02
2022-11-19T15:49:28.298Z,99919.88
2022-11-19T15:52:17.643Z,99922.30
2022-11-19T15:54:46.507Z,99920.95
2022-11-19T15:57:27.364Z,99919.38
2022-11-19T16:00:02.517Z,99920.23
2022-11-19T16:02:40.948Z,99919.19
2022-11-19T16:05:38.041Z,99920.50
2022-11-19T16:08:13.460Z,99916.55
2022-11-19T16:10:45.725Z,99912.89
2022-11-19T16:13:43.480Z,99911.14
2022-11-19T16:16:41.375Z,99911.42
2022-11-19T16:19:14.594Z,99913.62
2022-11-19T16:22:00.670Z,99913.91
2022-11-19T16:24:50.247Z,99915.73
2022-11-19T16:27:25.159Z,99913.96
2022-11-19T16:29:53.608Z,99911.80
2022-11-19T16:32:25.478Z,99911.89
2022-11-19T16:35:09.347Z,99915.86
2022-11-19T16:37:38.493Z,99916.61
2022-11-19T16:40:14.618Z,99912.73
2022-11-19T16:43:05.210Z,99914.14
2022-11-19T16:45:33.699Z,99909.43
2022-11-19T16:48:02.618Z,99907.96
2022-11-19T16:50:42.289Z,99905.98
2022-11-19T16:53:12.276Z,99904.20
2022-11-19T16:55:43.028Z,99909.55
2022-11-19T16:58:20.538Z,99915.27
2022-11-19T17:00:55.295Z,99914.12
2022-11-19T17:03:29.596Z,99912.63
2022-11-19T17:05:59.052Z,99913.54
2022-11-19T17:08:37.869Z,99912.24
2022-11-19T17:11:57.344Z,99909.10
2022-11-19T17:14:34.421Z,99910.38
2022-11-19T17:17:03.682Z,99908.06
2022-11-19T17:19:34.808Z,99907.73
2022-11-19T17:22:29.503Z,99914.61
2022-11-19T17:24:58.440Z,99917.75
2022-11-19T17:27:38.225Z,99916.75
2022-11-19T17:30:31.146Z,99916.41
2022-11-19T17:33:06.217Z,99917.26
2022-11-19T17:35:46.574Z,99916.21
2022-11-19T17:38:29.947Z,99912.77
2022-11-19T17:41:01.487Z,99912.61
2022-11-19T17:43:54.689Z,99916.05
2022-11-19T17:46:25.863Z,99923.75
2022-11-19T17:48:54.300Z,99922.91
2022-11-19T17:51:25.478Z,99930.12
2022-11-19T17:53:55.644Z,99927.38
2022-11-19T17:56:26.562Z,99927.74
2022-11-19T17:58:55.778Z,99932.75
2022-11-19T18:01:24.285Z,99932.45
2022-11-19T18:03:52.707Z,99930.80
2022-11-19T18:06:21.023Z,99932.39
2022-11-19T18:08:49.330Z,99932.60
2022-11-19T18:11:23.125Z,99930.77
2022-11-19T18:13:55.291Z,99929.80
2022-11-19T18:16:27.326Z,99931.22
2022-11-19T18:18:55.619Z,99935.34
2022-11-19T18:21:23.981Z,99938.29
2022-11-19T18:23:53.234Z,99938.13
2022-11-19T18:26:22.967Z,99936.11
2022-11-19T18:28:51.463Z,99934.59
2022-11-19T18:31:23.148Z,99942.15
2022-11-19T18:33:51.988Z,99942.66
2022-11-19T18:36:20.809Z,99943.38
2022-11-19T18:38:49.222Z,99944.24
2022-11-19T18:41:20.698Z,99947.20
2022-11-19T18:44:07.347Z,99948.91
2022-11-19T18:46:35.789Z,99951.16
2022-11-19T18:49:04.475Z,99953.59
2022-11-19T18:51:33.071Z,99955.84
2022-11-19T18:54:01.799Z,99956.21
2022-11-19T18:56:30.317Z,99955.88
2022-11-19T18:59:03.387Z,99958.64
2022-11-19T19:01:33.523Z,99957.30
2022-11-19T19:04:02.222Z,99958.36
2022-11-19T19:06:31.150Z,99959.77
2022-11-19T19:08:59.519Z,99960.34
2022-11-19T19:11:46.672Z,99964.83
2022-11-19T19:14:15.237Z,99960.98
2022-11-19T19:16:43.960Z,99963.20
2022-11-19T19:19:17.348Z,99964.43
2022-11-19T19:21:46.636Z,99968.92
2022-11-19T19:24:15.095Z,99972.39
2022-11-19T19:26:43.727Z,99969.08
2022-11-19T19:29:12.808Z,99970.52
2022-11-19T19:31:41.204Z,99968.67
2022-11-19T19:34:09.893Z,99968.40
2022-11-19T19:36:38.459Z,99967.42
2022-11-19T19:39:06.989Z,99967.73
2022-11-19T19:41:35.387Z,99965.46
2022-11-19T19:44:05.643Z,99959.25
2022-11-19T19:46:34.140Z,99956.61
2022-11-19T19:49:02.706Z,99952.45
2022-11-19T19:51:32.787Z,99951.70
2022-11-19T19:54:01.670Z,99951.79
2022-11-19T19:56:32.295Z,99953.60
2022-11-19T19:59:02.098Z,99953.66
2022-11-19T20:01:34.457Z,99952.58
2022-11-19T20:04:09.794Z,99955.23
2022-11-19T20:06:41.832Z,99951.69
2022-11-19T20:09:10.411Z,99955.67
2022-11-19T20:11:39.064Z,99952.08
2022-11-19T20:14:07.604Z,99954.29
2022-11-19T20:16:40.689Z,99952.58
2022-11-19T20:19:14.368Z,99947.29
2022-11-19T20:21:42.829Z,99949.89
2022-11-19T20:24:14.040Z,99947.69
2022-11-19T20:26:43.113Z,99942.44
2022-11-19T20:29:14.211Z,99946.23
2022-11-19T20:31:48.067Z,99955.14
2022-11-19T20:34:17.185Z,99957.78
2022-11-19T20:36:46.414Z,99961.27
2022-11-19T20:39:14.955Z,99955.60
2022-11-19T20:42:01.977Z,99957.61
2022-11-19T20:44:30.478Z,99962.00
2022-11-19T20:47:04.212Z,99959.83
2022-11-19T20:49:36.119Z,99961.58
2022-11-19T20:52:05.343Z,99959.21
2022-11-19T20:54:34.348Z,99961.94
2022-11-19T20:57:03.131Z,99962.66
2022-11-19T20:59:31.738Z,99963.73
2022-11-19T21:02:00.296Z,99963.98
2022-11-19T21:04:29.611Z,99963.52
2022-11-19T21:06:57.985Z,99967.30
2022-11-19T21:09:26.533Z,99969.02
2022-11-19T21:11:55.314Z,99976.04
2022-11-19T21:14:23.860Z,99978.43
2022-11-19T21:16:52.235Z,99976.63
2022-11-19T21:19:20.968Z,99973.24
2022-11-19T21:21:49.666Z,99977.39
2022-11-19T21:24:18.109Z,99975.23
2022-11-19T21:26:46.726Z,99975.30
2022-11-19T21:29:15.483Z,99976.04
2022-11-19T21:31:48.483Z,99974.08
2022-11-19T21:34:22.395Z,99974.28
2022-11-19T21:36:51.398Z,99975.87
2022-11-19T21:39:20.484Z,99974.20
2022-11-19T21:41:49.218Z,99975.44
2022-11-19T21:44:21.555Z,99978.21
2022-11-19T21:46:50.577Z,99979.98
2022-11-19T21:49:19.524Z,99979.17
2022-11-19T21:51:49.170Z,99973.92
2022-11-19T21:54:17.644Z,99967.34
2022-11-19T21:56:47.183Z,99965.83
2022-11-19T21:59:15.529Z,99959.90
2022-11-19T22:01:43.947Z,99959.43
2022-11-19T22:04:15.509Z,99956.82
2022-11-19T22:06:43.873Z,99955.88
2022-11-19T22:09:12.196Z,99953.16
2022-11-19T22:11:40.500Z,99949.55
2022-11-19T22:14:10.627Z,99949.20
2022-11-19T22:16:40.290Z,99945.11
2022-11-19T22:19:12.064Z,99942.77
2022-11-19T22:21:40.639Z,99945.51
2022-11-19T22:26:55.720Z,99940.21
2022-11-19T22:29:24.055Z,99942.61
2022-11-19T22:31:52.405Z,99948.63
2022-11-19T22:34:20.732Z,99952.09
2022-11-19T22:36:49.066Z,99951.30
2022-11-19T22:39:18.524Z,99945.55
2022-11-19T22:41:47.133Z,99945.58
2022-11-19T22:44:15.606Z,99948.30
2022-11-19T22:46:44.151Z,99951.03
2022-11-19T22:49:12.532Z,99951.22
2022-11-19T22:51:41.003Z,99948.48
2022-11-19T22:54:15.311Z,99943.90
2022-11-19T22:56:43.723Z,99945.09
2022-11-19T22:59:12.353Z,99942.16
2022-11-19T23:01:40.721Z,99939.10
2022-11-19T23:04:09.090Z,99945.10
2022-11-19T23:06:37.617Z,99944.13
2022-11-19T23:09:07.421Z,99943.95
2022-11-19T23:11:54.777Z,99940.84
2022-11-19T23:14:25.226Z,99940.43
2022-11-19T23:16:53.561Z,99936.45
2022-11-19T23:19:22.550Z,99932.98
2022-11-19T23:21:51.247Z,99933.81
2022-11-19T23:24:19.782Z,99930.40
2022-11-19T23:26:48.103Z,99928.52
2022-11-19T23:29:16.425Z,99930.36
2022-11-19T23:31:44.720Z,99927.98
2022-11-19T23:34:13.308Z,99929.83
2022-11-19T23:36:42.089Z,99928.30
2022-11-19T23:39:16.483Z,99931.04
2022-11-19T23:41:45.682Z,99935.34
2022-11-19T23:44:14.293Z,99935.93
2022-11-19T23:46:42.664Z,99935.31
2022-11-19T23:49:11.264Z,99935.56
2022-11-19T23:51:40.255Z,99940.39
2022-11-19T23:54:12.525Z,99939.08
2022-11-19T23:56:40.974Z,99933.83
2022-11-19T23:59:09.388Z,99937.77
